Chambers County Airport


Codes: KT00/
Name: Chambers County Airport
City: Anahuac
Country: United States
Elevation: 21 ft.

Photos at Chambers County Airport


   Photos courtesy of SpottingLog. You can add your own sightings and photos by signing up for a free trial today.



No photos found.

Weather at Chambers County Airport


Time (UTC)DescriptionTempratureWindCloud coverageVisibilityPressureHumidity
19-Apr-2024 03:00Overcast Clouds24°C7 mph, 96%10000m1015hPa96%
19-Apr-2024 06:00Overcast Clouds23°C4 mph, S97%10000m1015hPa95%
19-Apr-2024 09:00Overcast Clouds23°C4 mph, SE97%10000m1015hPa95%
19-Apr-2024 12:00Overcast Clouds22°C0 mph, S99%10000m1016hPa95%
19-Apr-2024 15:00Light Rain24°C4 mph, SE100%10000m1017hPa85%
19-Apr-2024 18:00Light Rain27°C2 mph, SW87%10000m1017hPa72%
19-Apr-2024 21:00Light Rain27°C7 mph, S85%10000m1015hPa73%
20-Apr-2024 00:00Overcast Clouds24°C7 mph, S88%10000m1015hPa82%
20-Apr-2024 03:00Broken Clouds22°C7 mph, SE70%10000m1016hPa91%
20-Apr-2024 06:00Scattered Clouds22°C9 mph, SE42%10000m1016hPa90%
20-Apr-2024 09:00Overcast Clouds21°C2 mph, E100%10000m1017hPa90%
20-Apr-2024 12:00Overcast Clouds20°C9 mph, NE100%10000m1017hPa96%
20-Apr-2024 15:00Overcast Clouds23°C11 mph, E100%10000m1018hPa83%
20-Apr-2024 18:00Overcast Clouds27°C7 mph, SE100%10000m1017hPa61%
20-Apr-2024 21:00Broken Clouds26°C11 mph, SE81%10000m1015hPa68%
21-Apr-2024 00:00Overcast Clouds23°C11 mph, SE89%10000m1014hPa78%
21-Apr-2024 03:00Overcast Clouds21°C11 mph, E100%10000m1016hPa86%
21-Apr-2024 06:00Overcast Clouds19°C13 mph, NE100%10000m1017hPa86%
21-Apr-2024 09:00Overcast Clouds18°C13 mph, NE100%10000m1017hPa88%
21-Apr-2024 12:00Light Rain16°C13 mph, NE100%10000m1018hPa95%
21-Apr-2024 15:00Light Rain15°C13 mph, N100%10000m1020hPa94%
21-Apr-2024 18:00Overcast Clouds18°C13 mph, N100%10000m1020hPa78%
21-Apr-2024 21:00Overcast Clouds21°C13 mph, N91%10000m1018hPa66%
22-Apr-2024 00:00Overcast Clouds18°C13 mph, NE92%10000m1018hPa71%
22-Apr-2024 03:00Broken Clouds15°C13 mph, NE60%10000m1020hPa79%
22-Apr-2024 06:00Broken Clouds14°C9 mph, NE59%10000m1020hPa79%
22-Apr-2024 09:00Scattered Clouds12°C9 mph, NE26%10000m1019hPa85%
22-Apr-2024 12:00Broken Clouds11°C9 mph, NE64%10000m1020hPa82%
22-Apr-2024 15:00Overcast Clouds14°C9 mph, NE100%10000m1021hPa63%
22-Apr-2024 18:00Overcast Clouds19°C7 mph, E100%10000m1019hPa50%
22-Apr-2024 21:00Overcast Clouds21°C9 mph, S95%10000m1017hPa52%
23-Apr-2024 00:00Overcast Clouds18°C9 mph, SE98%10000m1016hPa66%
23-Apr-2024 03:00Broken Clouds16°C7 mph, SE67%10000m1017hPa76%
23-Apr-2024 06:00Scattered Clouds16°C7 mph, SE34%10000m1016hPa82%
23-Apr-2024 09:00Scattered Clouds18°C7 mph, SE47%10000m1015hPa84%
23-Apr-2024 12:00Light Rain19°C4 mph, S74%10000m1016hPa86%
23-Apr-2024 15:00Overcast Clouds21°C4 mph, S100%10000m1016hPa79%
23-Apr-2024 18:00Overcast Clouds25°C7 mph, S89%10000m1016hPa67%
23-Apr-2024 21:00Scattered Clouds25°C11 mph, S35%10000m1014hPa71%
24-Apr-2024 00:00Scattered Clouds23°C11 mph, SE33%10000m1015hPa82%